sensor_id;sensor_type;location;lat;lon;timestamp;pressure;altitude;pressure_sealevel;temperature
22828;BMP180;11580;52.562;13.418;2022-07-23T00:00:24;100891.00;;;22.20
22828;BMP180;11580;52.562;13.418;2022-07-23T00:02:52;100880.00;;;22.20
22828;BMP180;11580;52.562;13.418;2022-07-23T00:05:19;100882.00;;;22.20
22828;BMP180;11580;52.562;13.418;2022-07-23T00:07:48;100876.00;;;22.10
22828;BMP180;11580;52.562;13.418;2022-07-23T00:10:15;100863.00;;;22.10
22828;BMP180;11580;52.562;13.418;2022-07-23T00:12:43;100865.00;;;22.10
22828;BMP180;11580;52.562;13.418;2022-07-23T00:15:10;100867.00;;;22.10
22828;BMP180;11580;52.562;13.418;2022-07-23T00:17:37;100863.00;;;22.00
22828;BMP180;11580;52.562;13.418;2022-07-23T00:20:06;100868.00;;;22.00
22828;BMP180;11580;52.562;13.418;2022-07-23T00:22:34;100868.00;;;22.00
22828;BMP180;11580;52.562;13.418;2022-07-23T00:25:03;100868.00;;;22.00
22828;BMP180;11580;52.562;13.418;2022-07-23T00:27:30;100865.00;;;22.00
22828;BMP180;11580;52.562;13.418;2022-07-23T00:29:57;100855.00;;;22.00
22828;BMP180;11580;52.562;13.418;2022-07-23T00:32:25;100857.00;;;22.00
22828;BMP180;11580;52.562;13.418;2022-07-23T00:34:52;100848.00;;;22.10
22828;BMP180;11580;52.562;13.418;2022-07-23T00:37:19;100849.00;;;22.10
22828;BMP180;11580;52.562;13.418;2022-07-23T00:39:46;100854.00;;;22.10
22828;BMP180;11580;52.562;13.418;2022-07-23T00:42:15;100847.00;;;22.10
22828;BMP180;11580;52.562;13.418;2022-07-23T00:44:42;100852.00;;;22.10
22828;BMP180;11580;52.562;13.418;2022-07-23T00:47:09;100864.00;;;22.10
22828;BMP180;11580;52.562;13.418;2022-07-23T00:49:37;100855.00;;;22.10
22828;BMP180;11580;52.562;13.418;2022-07-23T00:52:04;100863.00;;;22.10
22828;BMP180;11580;52.562;13.418;2022-07-23T00:54:32;100852.00;;;22.10
22828;BMP180;11580;52.562;13.418;2022-07-23T00:56:59;100860.00;;;22.10
22828;BMP180;11580;52.562;13.418;2022-07-23T00:59:28;100857.00;;;22.10
22828;BMP180;11580;52.562;13.418;2022-07-23T01:01:57;100861.00;;;22.10
22828;BMP180;11580;52.562;13.418;2022-07-23T01:04:25;100837.00;;;22.10
22828;BMP180;11580;52.562;13.418;2022-07-23T01:06:52;100870.00;;;22.00
22828;BMP180;11580;52.562;13.418;2022-07-23T01:09:19;100867.00;;;22.00
22828;BMP180;11580;52.562;13.418;2022-07-23T01:11:47;100856.00;;;22.00
22828;BMP180;11580;52.562;13.418;2022-07-23T01:14:17;100855.00;;;21.90
22828;BMP180;11580;52.562;13.418;2022-07-23T01:16:48;100859.00;;;21.90
22828;BMP180;11580;52.562;13.418;2022-07-23T01:19:16;100863.00;;;21.80
22828;BMP180;11580;52.562;13.418;2022-07-23T01:21:46;100851.00;;;21.80
22828;BMP180;11580;52.562;13.418;2022-07-23T01:24:15;100851.00;;;21.80
22828;BMP180;11580;52.562;13.418;2022-07-23T01:27:04;100833.00;;;21.70
22828;BMP180;11580;52.562;13.418;2022-07-23T01:29:34;100836.00;;;21.70
22828;BMP180;11580;52.562;13.418;2022-07-23T01:32:05;100836.00;;;21.70
22828;BMP180;11580;52.562;13.418;2022-07-23T01:34:32;100838.00;;;21.60
22828;BMP180;11580;52.562;13.418;2022-07-23T01:37:00;100828.00;;;21.60
22828;BMP180;11580;52.562;13.418;2022-07-23T01:39:29;100830.00;;;21.60
22828;BMP180;11580;52.562;13.418;2022-07-23T01:41:57;100835.00;;;21.50
22828;BMP180;11580;52.562;13.418;2022-07-23T01:44:25;100829.00;;;21.50
22828;BMP180;11580;52.562;13.418;2022-07-23T01:46:52;100832.00;;;21.50
22828;BMP180;11580;52.562;13.418;2022-07-23T01:49:21;100824.00;;;21.40
22828;BMP180;11580;52.562;13.418;2022-07-23T01:52:08;100827.00;;;21.40
22828;BMP180;11580;52.562;13.418;2022-07-23T01:54:44;100824.00;;;21.30
22828;BMP180;11580;52.562;13.418;2022-07-23T01:57:11;100825.00;;;21.30
22828;BMP180;11580;52.562;13.418;2022-07-23T01:59:39;100818.00;;;21.30
22828;BMP180;11580;52.562;13.418;2022-07-23T02:02:07;100816.00;;;21.20
22828;BMP180;11580;52.562;13.418;2022-07-23T02:04:35;100818.00;;;21.20
22828;BMP180;11580;52.562;13.418;2022-07-23T02:07:04;100823.00;;;21.20
22828;BMP180;11580;52.562;13.418;2022-07-23T02:09:32;100821.00;;;21.20
22828;BMP180;11580;52.562;13.418;2022-07-23T02:12:00;100826.00;;;21.20
22828;BMP180;11580;52.562;13.418;2022-07-23T02:14:28;100815.00;;;21.20
22828;BMP180;11580;52.562;13.418;2022-07-23T02:16:55;100813.00;;;21.20
22828;BMP180;11580;52.562;13.418;2022-07-23T02:19:23;100810.00;;;21.30
22828;BMP180;11580;52.562;13.418;2022-07-23T02:21:50;100821.00;;;21.30
22828;BMP180;11580;52.562;13.418;2022-07-23T02:24:19;100816.00;;;21.30
22828;BMP180;11580;52.562;13.418;2022-07-23T02:26:46;100804.00;;;21.30
22828;BMP180;11580;52.562;13.418;2022-07-23T02:29:15;100816.00;;;21.30
22828;BMP180;11580;52.562;13.418;2022-07-23T02:31:43;100820.00;;;21.40
22828;BMP180;11580;52.562;13.418;2022-07-23T02:34:12;100822.00;;;21.40
22828;BMP180;11580;52.562;13.418;2022-07-23T02:36:39;100809.00;;;21.40
22828;BMP180;11580;52.562;13.418;2022-07-23T02:39:07;100820.00;;;21.40
22828;BMP180;11580;52.562;13.418;2022-07-23T02:41:35;100822.00;;;21.40
22828;BMP180;11580;52.562;13.418;2022-07-23T02:44:03;100821.00;;;21.40
22828;BMP180;11580;52.562;13.418;2022-07-23T02:46:32;100821.00;;;21.30
22828;BMP180;11580;52.562;13.418;2022-07-23T02:49:01;100819.00;;;21.30
22828;BMP180;11580;52.562;13.418;2022-07-23T02:51:31;100819.00;;;21.30
22828;BMP180;11580;52.562;13.418;2022-07-23T02:54:03;100832.00;;;21.30
22828;BMP180;11580;52.562;13.418;2022-07-23T02:56:31;100829.00;;;21.20
22828;BMP180;11580;52.562;13.418;2022-07-23T02:58:58;100833.00;;;21.20
22828;BMP180;11580;52.562;13.418;2022-07-23T03:01:25;100828.00;;;21.10
22828;BMP180;11580;52.562;13.418;2022-07-23T03:03:54;100826.00;;;21.10
22828;BMP180;11580;52.562;13.418;2022-07-23T03:06:22;100824.00;;;21.10
22828;BMP180;11580;52.562;13.418;2022-07-23T03:08:50;100824.00;;;21.00
22828;BMP180;11580;52.562;13.418;2022-07-23T03:11:17;100829.00;;;20.90
22828;BMP180;11580;52.562;13.418;2022-07-23T03:13:46;100806.00;;;20.90
22828;BMP180;11580;52.562;13.418;2022-07-23T03:16:13;100815.00;;;20.90
22828;BMP180;11580;52.562;13.418;2022-07-23T03:18:40;100821.00;;;20.80
22828;BMP180;11580;52.562;13.418;2022-07-23T03:21:11;100829.00;;;20.80
22828;BMP180;11580;52.562;13.418;2022-07-23T03:23:38;100797.00;;;20.80
22828;BMP180;11580;52.562;13.418;2022-07-23T03:26:07;100826.00;;;20.80
22828;BMP180;11580;52.562;13.418;2022-07-23T03:28:34;100831.00;;;20.90
22828;BMP180;11580;52.562;13.418;2022-07-23T03:31:01;100828.00;;;20.90
22828;BMP180;11580;52.562;13.418;2022-07-23T03:33:28;100832.00;;;20.90
22828;BMP180;11580;52.562;13.418;2022-07-23T03:35:56;100834.00;;;20.90
22828;BMP180;11580;52.562;13.418;2022-07-23T03:38:30;100844.00;;;20.90
22828;BMP180;11580;52.562;13.418;2022-07-23T03:40:57;100843.00;;;20.90
22828;BMP180;11580;52.562;13.418;2022-07-23T03:43:24;100855.00;;;21.00
22828;BMP180;11580;52.562;13.418;2022-07-23T03:45:52;100853.00;;;21.00
22828;BMP180;11580;52.562;13.418;2022-07-23T03:48:19;100860.00;;;21.10
22828;BMP180;11580;52.562;13.418;2022-07-23T03:50:46;100868.00;;;21.10
22828;BMP180;11580;52.562;13.418;2022-07-23T03:53:13;100850.00;;;21.10
22828;BMP180;11580;52.562;13.418;2022-07-23T03:55:42;100856.00;;;21.10
22828;BMP180;11580;52.562;13.418;2022-07-23T03:58:09;100860.00;;;21.10
22828;BMP180;11580;52.562;13.418;2022-07-23T04:00:36;100866.00;;;21.20
22828;BMP180;11580;52.562;13.418;2022-07-23T04:03:04;100872.00;;;21.20
22828;BMP180;11580;52.562;13.418;2022-07-23T04:05:33;100863.00;;;21.20
22828;BMP180;11580;52.562;13.418;2022-07-23T04:08:12;100860.00;;;21.20
22828;BMP180;11580;52.562;13.418;2022-07-23T04:10:45;100856.00;;;21.20
22828;BMP180;11580;52.562;13.418;2022-07-23T04:13:12;100860.00;;;21.20
22828;BMP180;11580;52.562;13.418;2022-07-23T04:15:39;100845.00;;;21.20
22828;BMP180;11580;52.562;13.418;2022-07-23T04:18:07;100827.00;;;21.20
22828;BMP180;11580;52.562;13.418;2022-07-23T04:20:44;100831.00;;;21.20
22828;BMP180;11580;52.562;13.418;2022-07-23T04:23:11;100832.00;;;21.20
22828;BMP180;11580;52.562;13.418;2022-07-23T04:25:39;100817.00;;;21.10
22828;BMP180;11580;52.562;13.418;2022-07-23T04:28:09;100848.00;;;21.10
22828;BMP180;11580;52.562;13.418;2022-07-23T04:30:36;100844.00;;;21.10
22828;BMP180;11580;52.562;13.418;2022-07-23T04:33:05;100834.00;;;21.10
22828;BMP180;11580;52.562;13.418;2022-07-23T04:35:34;100837.00;;;21.10
22828;BMP180;11580;52.562;13.418;2022-07-23T04:38:11;100830.00;;;21.10
22828;BMP180;11580;52.562;13.418;2022-07-23T04:40:39;100812.00;;;21.00
22828;BMP180;11580;52.562;13.418;2022-07-23T04:43:08;100850.00;;;20.80
22828;BMP180;11580;52.562;13.418;2022-07-23T04:45:43;100867.00;;;20.60
22828;BMP180;11580;52.562;13.418;2022-07-23T04:48:11;100879.00;;;20.40
22828;BMP180;11580;52.562;13.418;2022-07-23T04:50:40;100874.00;;;20.10
22828;BMP180;11580;52.562;13.418;2022-07-23T04:53:14;100879.00;;;19.90
22828;BMP180;11580;52.562;13.418;2022-07-23T04:55:43;100879.00;;;19.80
22828;BMP180;11580;52.562;13.418;2022-07-23T04:58:11;100879.00;;;19.60
22828;BMP180;11580;52.562;13.418;2022-07-23T05:00:38;100888.00;;;19.40
22828;BMP180;11580;52.562;13.418;2022-07-23T05:03:06;100877.00;;;19.30
22828;BMP180;11580;52.562;13.418;2022-07-23T05:05:33;100884.00;;;19.20
22828;BMP180;11580;52.562;13.418;2022-07-23T05:08:09;100889.00;;;19.10
22828;BMP180;11580;52.562;13.418;2022-07-23T05:10:38;100873.00;;;19.00
22828;BMP180;11580;52.562;13.418;2022-07-23T05:13:05;100852.00;;;18.90
22828;BMP180;11580;52.562;13.418;2022-07-23T05:15:34;100843.00;;;18.80
22828;BMP180;11580;52.562;13.418;2022-07-23T05:18:03;100844.00;;;18.80
22828;BMP180;11580;52.562;13.418;2022-07-23T05:20:31;100846.00;;;18.70
22828;BMP180;11580;52.562;13.418;2022-07-23T05:22:59;100843.00;;;18.70
22828;BMP180;11580;52.562;13.418;2022-07-23T05:25:26;100854.00;;;18.60
22828;BMP180;11580;52.562;13.418;2022-07-23T05:27:54;100839.00;;;18.60
22828;BMP180;11580;52.562;13.418;2022-07-23T05:30:21;100844.00;;;18.60
22828;BMP180;11580;52.562;13.418;2022-07-23T05:32:53;100831.00;;;18.50
22828;BMP180;11580;52.562;13.418;2022-07-23T05:35:20;100845.00;;;18.50
22828;BMP180;11580;52.562;13.418;2022-07-23T05:38:05;100836.00;;;18.50
22828;BMP180;11580;52.562;13.418;2022-07-23T05:40:34;100824.00;;;18.50
22828;BMP180;11580;52.562;13.418;2022-07-23T05:43:01;100794.00;;;18.60
22828;BMP180;11580;52.562;13.418;2022-07-23T05:45:29;100850.00;;;18.60
22828;BMP180;11580;52.562;13.418;2022-07-23T05:47:58;100849.00;;;18.60
22828;BMP180;11580;52.562;13.418;2022-07-23T05:50:34;100847.00;;;18.60
22828;BMP180;11580;52.562;13.418;2022-07-23T05:53:11;100847.00;;;18.70
22828;BMP180;11580;52.562;13.418;2022-07-23T05:55:50;100857.00;;;18.90
22828;BMP180;11580;52.562;13.418;2022-07-23T05:58:17;100867.00;;;19.00
22828;BMP180;11580;52.562;13.418;2022-07-23T06:00:45;100877.00;;;19.10
22828;BMP180;11580;52.562;13.418;2022-07-23T06:03:13;100875.00;;;19.20
22828;BMP180;11580;52.562;13.418;2022-07-23T06:05:41;100877.00;;;19.40
22828;BMP180;11580;52.562;13.418;2022-07-23T06:08:08;100886.00;;;19.40
22828;BMP180;11580;52.562;13.418;2022-07-23T06:10:37;100891.00;;;19.50
22828;BMP180;11580;52.562;13.418;2022-07-23T06:13:05;100879.00;;;19.60
22828;BMP180;11580;52.562;13.418;2022-07-23T06:15:32;100866.00;;;19.60
22828;BMP180;11580;52.562;13.418;2022-07-23T06:18:00;100862.00;;;19.70
22828;BMP180;11580;52.562;13.418;2022-07-23T06:20:28;100846.00;;;19.70
22828;BMP180;11580;52.562;13.418;2022-07-23T06:22:57;100836.00;;;19.60
22828;BMP180;11580;52.562;13.418;2022-07-23T06:25:25;100839.00;;;19.50
22828;BMP180;11580;52.562;13.418;2022-07-23T06:27:52;100849.00;;;19.50
22828;BMP180;11580;52.562;13.418;2022-07-23T06:30:20;100854.00;;;19.50
22828;BMP180;11580;52.562;13.418;2022-07-23T06:32:48;100861.00;;;19.50
22828;BMP180;11580;52.562;13.418;2022-07-23T06:35:16;100850.00;;;19.50
22828;BMP180;11580;52.562;13.418;2022-07-23T06:37:47;100865.00;;;19.50
22828;BMP180;11580;52.562;13.418;2022-07-23T06:40:15;100845.00;;;19.60
22828;BMP180;11580;52.562;13.418;2022-07-23T06:42:42;100844.00;;;19.60
22828;BMP180;11580;52.562;13.418;2022-07-23T06:45:17;100835.00;;;19.70
22828;BMP180;11580;52.562;13.418;2022-07-23T06:47:44;100837.00;;;19.70
22828;BMP180;11580;52.562;13.418;2022-07-23T06:50:11;100836.00;;;19.70
22828;BMP180;11580;52.562;13.418;2022-07-23T06:52:39;100821.00;;;19.70
22828;BMP180;11580;52.562;13.418;2022-07-23T06:55:08;100815.00;;;19.70
22828;BMP180;11580;52.562;13.418;2022-07-23T06:57:36;100816.00;;;19.70
22828;BMP180;11580;52.562;13.418;2022-07-23T07:00:07;100826.00;;;19.60
22828;BMP180;11580;52.562;13.418;2022-07-23T07:02:34;100822.00;;;19.60
22828;BMP180;11580;52.562;13.418;2022-07-23T07:05:02;100817.00;;;19.50
22828;BMP180;11580;52.562;13.418;2022-07-23T07:07:29;100833.00;;;19.50
22828;BMP180;11580;52.562;13.418;2022-07-23T07:09:57;100829.00;;;19.50
22828;BMP180;11580;52.562;13.418;2022-07-23T07:12:25;100824.00;;;19.50
22828;BMP180;11580;52.562;13.418;2022-07-23T07:14:52;100831.00;;;19.50
22828;BMP180;11580;52.562;13.418;2022-07-23T07:17:20;100853.00;;;19.60
22828;BMP180;11580;52.562;13.418;2022-07-23T07:19:47;100869.00;;;19.60
22828;BMP180;11580;52.562;13.418;2022-07-23T07:22:14;100874.00;;;19.80
22828;BMP180;11580;52.562;13.418;2022-07-23T07:24:42;100874.00;;;19.90
22828;BMP180;11580;52.562;13.418;2022-07-23T07:27:09;100885.00;;;20.10
22828;BMP180;11580;52.562;13.418;2022-07-23T07:29:37;100890.00;;;20.30
22828;BMP180;11580;52.562;13.418;2022-07-23T07:32:05;100901.00;;;20.50
22828;BMP180;11580;52.562;13.418;2022-07-23T07:34:33;100890.00;;;20.60
22828;BMP180;11580;52.562;13.418;2022-07-23T07:37:00;100882.00;;;20.80
22828;BMP180;11580;52.562;13.418;2022-07-23T07:39:27;100881.00;;;20.90
22828;BMP180;11580;52.562;13.418;2022-07-23T07:41:54;100882.00;;;21.00
22828;BMP180;11580;52.562;13.418;2022-07-23T07:44:22;100880.00;;;21.10
22828;BMP180;11580;52.562;13.418;2022-07-23T07:46:50;100877.00;;;21.10
22828;BMP180;11580;52.562;13.418;2022-07-23T07:49:19;100876.00;;;21.00
22828;BMP180;11580;52.562;13.418;2022-07-23T07:51:46;100873.00;;;21.10
22828;BMP180;11580;52.562;13.418;2022-07-23T07:54:13;100870.00;;;21.20
22828;BMP180;11580;52.562;13.418;2022-07-23T07:56:41;100861.00;;;21.30
22828;BMP180;11580;52.562;13.418;2022-07-23T07:59:08;100866.00;;;21.30
22828;BMP180;11580;52.562;13.418;2022-07-23T08:01:37;100839.00;;;21.40
22828;BMP180;11580;52.562;13.418;2022-07-23T08:04:05;100838.00;;;21.40
22828;BMP180;11580;52.562;13.418;2022-07-23T08:06:33;100850.00;;;21.50
22828;BMP180;11580;52.562;13.418;2022-07-23T08:09:00;100849.00;;;21.60
22828;BMP180;11580;52.562;13.418;2022-07-23T08:11:27;100863.00;;;21.60
22828;BMP180;11580;52.562;13.418;2022-07-23T08:13:55;100855.00;;;21.70
22828;BMP180;11580;52.562;13.418;2022-07-23T08:16:22;100852.00;;;21.90
22828;BMP180;11580;52.562;13.418;2022-07-23T08:18:49;100852.00;;;21.90
22828;BMP180;11580;52.562;13.418;2022-07-23T08:21:18;100847.00;;;22.00
22828;BMP180;11580;52.562;13.418;2022-07-23T08:23:45;100856.00;;;22.00
22828;BMP180;11580;52.562;13.418;2022-07-23T08:26:13;100847.00;;;22.10
22828;BMP180;11580;52.562;13.418;2022-07-23T08:28:40;100848.00;;;22.20
22828;BMP180;11580;52.562;13.418;2022-07-23T08:31:07;100852.00;;;22.20
22828;BMP180;11580;52.562;13.418;2022-07-23T08:33:36;100855.00;;;22.30
22828;BMP180;11580;52.562;13.418;2022-07-23T08:36:04;100862.00;;;22.40
22828;BMP180;11580;52.562;13.418;2022-07-23T08:38:34;100863.00;;;22.40
22828;BMP180;11580;52.562;13.418;2022-07-23T08:41:02;100855.00;;;22.50
22828;BMP180;11580;52.562;13.418;2022-07-23T08:43:32;100851.00;;;22.40
22828;BMP180;11580;52.562;13.418;2022-07-23T08:46:02;100865.00;;;22.40
22828;BMP180;11580;52.562;13.418;2022-07-23T08:48:34;100864.00;;;22.40
22828;BMP180;11580;52.562;13.418;2022-07-23T08:51:04;100873.00;;;22.50
22828;BMP180;11580;52.562;13.418;2022-07-23T08:53:34;100864.00;;;22.50
22828;BMP180;11580;52.562;13.418;2022-07-23T08:56:06;100872.00;;;22.60
22828;BMP180;11580;52.562;13.418;2022-07-23T08:58:34;100869.00;;;22.70
22828;BMP180;11580;52.562;13.418;2022-07-23T09:01:02;100853.00;;;22.70
22828;BMP180;11580;52.562;13.418;2022-07-23T09:03:32;100859.00;;;22.80
22828;BMP180;11580;52.562;13.418;2022-07-23T09:06:01;100856.00;;;22.80
22828;BMP180;11580;52.562;13.418;2022-07-23T09:08:37;100852.00;;;22.80
22828;BMP180;11580;52.562;13.418;2022-07-23T09:11:07;100852.00;;;22.80
22828;BMP180;11580;52.562;13.418;2022-07-23T09:13:38;100855.00;;;22.80
22828;BMP180;11580;52.562;13.418;2022-07-23T09:16:09;100859.00;;;22.90
22828;BMP180;11580;52.562;13.418;2022-07-23T09:18:45;100869.00;;;23.00
22828;BMP180;11580;52.562;13.418;2022-07-23T09:21:22;100870.00;;;23.10
22828;BMP180;11580;52.562;13.418;2022-07-23T09:23:56;100871.00;;;23.30
22828;BMP180;11580;52.562;13.418;2022-07-23T09:26:34;100874.00;;;23.50
22828;BMP180;11580;52.562;13.418;2022-07-23T09:29:06;100878.00;;;23.60
22828;BMP180;11580;52.562;13.418;2022-07-23T09:31:45;100884.00;;;23.80
22828;BMP180;11580;52.562;13.418;2022-07-23T09:34:18;100898.00;;;24.00
22828;BMP180;11580;52.562;13.418;2022-07-23T09:36:46;100887.00;;;24.10
22828;BMP180;11580;52.562;13.418;2022-07-23T09:39:25;100891.00;;;24.30
22828;BMP180;11580;52.562;13.418;2022-07-23T09:41:53;100895.00;;;24.40
22828;BMP180;11580;52.562;13.418;2022-07-23T09:44:22;100895.00;;;24.50
22828;BMP180;11580;52.562;13.418;2022-07-23T09:46:50;100894.00;;;24.60
22828;BMP180;11580;52.562;13.418;2022-07-23T09:49:24;100895.00;;;24.60
22828;BMP180;11580;52.562;13.418;2022-07-23T09:51:54;100891.00;;;24.70
22828;BMP180;11580;52.562;13.418;2022-07-23T09:54:30;100890.00;;;24.70
22828;BMP180;11580;52.562;13.418;2022-07-23T09:57:04;100901.00;;;24.70
22828;BMP180;11580;52.562;13.418;2022-07-23T09:59:36;100881.00;;;24.80
22828;BMP180;11580;52.562;13.418;2022-07-23T10:02:06;100883.00;;;24.80
22828;BMP180;11580;52.562;13.418;2022-07-23T10:04:44;100891.00;;;24.90
22828;BMP180;11580;52.562;13.418;2022-07-23T10:07:22;100906.00;;;25.00
22828;BMP180;11580;52.562;13.418;2022-07-23T10:10:11;100908.00;;;25.10
22828;BMP180;11580;52.562;13.418;2022-07-23T10:12:59;100899.00;;;25.20
22828;BMP180;11580;52.562;13.418;2022-07-23T11:28:45;100902.00;;;26.00
22828;BMP180;11580;52.562;13.418;2022-07-23T11:31:18;100908.00;;;26.20
22828;BMP180;11580;52.562;13.418;2022-07-23T11:33:45;100905.00;;;26.40
22828;BMP180;11580;52.562;13.418;2022-07-23T11:36:12;100901.00;;;26.50
22828;BMP180;11580;52.562;13.418;2022-07-23T11:38:40;100904.00;;;26.70
22828;BMP180;11580;52.562;13.418;2022-07-23T11:41:08;100888.00;;;26.90
22828;BMP180;11580;52.562;13.418;2022-07-23T11:43:37;100907.00;;;27.20
22828;BMP180;11580;52.562;13.418;2022-07-23T11:46:09;100905.00;;;27.50
22828;BMP180;11580;52.562;13.418;2022-07-23T11:48:36;100908.00;;;27.70
22828;BMP180;11580;52.562;13.418;2022-07-23T11:51:04;100892.00;;;28.00
22828;BMP180;11580;52.562;13.418;2022-07-23T11:53:33;100903.00;;;28.30
22828;BMP180;11580;52.562;13.418;2022-07-23T11:56:06;100910.00;;;28.60
22828;BMP180;11580;52.562;13.418;2022-07-23T11:58:34;100910.00;;;28.90
22828;BMP180;11580;52.562;13.418;2022-07-23T12:01:01;100909.00;;;29.10
22828;BMP180;11580;52.562;13.418;2022-07-23T12:03:30;100916.00;;;29.30
22828;BMP180;11580;52.562;13.418;2022-07-23T12:05:59;100915.00;;;29.40
22828;BMP180;11580;52.562;13.418;2022-07-23T12:08:27;100906.00;;;29.50
22828;BMP180;11580;52.562;13.418;2022-07-23T12:10:54;100907.00;;;29.60
22828;BMP180;11580;52.562;13.418;2022-07-23T12:13:22;100909.00;;;29.70
22828;BMP180;11580;52.562;13.418;2022-07-23T12:15:52;100913.00;;;29.80
22828;BMP180;11580;52.562;13.418;2022-07-23T12:18:22;100905.00;;;29.90
22828;BMP180;11580;52.562;13.418;2022-07-23T12:20:55;100917.00;;;30.00
22828;BMP180;11580;52.562;13.418;2022-07-23T12:23:26;100911.00;;;30.00
22828;BMP180;11580;52.562;13.418;2022-07-23T12:25:53;100923.00;;;29.90
22828;BMP180;11580;52.562;13.418;2022-07-23T12:28:27;100909.00;;;29.90
22828;BMP180;11580;52.562;13.418;2022-07-23T12:30:57;100922.00;;;29.80
22828;BMP180;11580;52.562;13.418;2022-07-23T12:33:28;100916.00;;;29.70
22828;BMP180;11580;52.562;13.418;2022-07-23T12:35:59;100910.00;;;29.50
22828;BMP180;11580;52.562;13.418;2022-07-23T12:38:28;100914.00;;;29.40
22828;BMP180;11580;52.562;13.418;2022-07-23T12:41:03;100914.00;;;29.30
22828;BMP180;11580;52.562;13.418;2022-07-23T12:43:33;100916.00;;;29.30
22828;BMP180;11580;52.562;13.418;2022-07-23T12:46:05;100914.00;;;29.30
22828;BMP180;11580;52.562;13.418;2022-07-23T12:48:34;100916.00;;;29.30
22828;BMP180;11580;52.562;13.418;2022-07-23T12:51:05;100922.00;;;29.30
22828;BMP180;11580;52.562;13.418;2022-07-23T12:53:38;100915.00;;;29.30
22828;BMP180;11580;52.562;13.418;2022-07-23T12:56:09;100914.00;;;29.30
22828;BMP180;11580;52.562;13.418;2022-07-23T12:58:43;100931.00;;;29.20
22828;BMP180;11580;52.562;13.418;2022-07-23T13:01:23;100919.00;;;29.10
22828;BMP180;11580;52.562;13.418;2022-07-23T13:03:58;100932.00;;;29.00
22828;BMP180;11580;52.562;13.418;2022-07-23T13:06:29;100919.00;;;28.80
22828;BMP180;11580;52.562;13.418;2022-07-23T13:08:56;100916.00;;;28.80
22828;BMP180;11580;52.562;13.418;2022-07-23T13:11:25;100918.00;;;28.80
22828;BMP180;11580;52.562;13.418;2022-07-23T13:13:52;100923.00;;;28.70
22828;BMP180;11580;52.562;13.418;2022-07-23T13:16:20;100924.00;;;28.70
22828;BMP180;11580;52.562;13.418;2022-07-23T13:18:47;100921.00;;;28.60
22828;BMP180;11580;52.562;13.418;2022-07-23T13:21:14;100912.00;;;28.60
22828;BMP180;11580;52.562;13.418;2022-07-23T13:23:44;100910.00;;;28.50
22828;BMP180;11580;52.562;13.418;2022-07-23T13:26:11;100911.00;;;28.40
22828;BMP180;11580;52.562;13.418;2022-07-23T13:28:38;100906.00;;;28.40
22828;BMP180;11580;52.562;13.418;2022-07-23T13:31:05;100913.00;;;28.30
22828;BMP180;11580;52.562;13.418;2022-07-23T13:33:33;100913.00;;;28.30
22828;BMP180;11580;52.562;13.418;2022-07-23T13:36:01;100917.00;;;28.30
22828;BMP180;11580;52.562;13.418;2022-07-23T13:38:29;100910.00;;;28.40
22828;BMP180;11580;52.562;13.418;2022-07-23T13:40:58;100906.00;;;28.40
22828;BMP180;11580;52.562;13.418;2022-07-23T13:43:26;100895.00;;;28.40
22828;BMP180;11580;52.562;13.418;2022-07-23T13:45:53;100914.00;;;28.40
22828;BMP180;11580;52.562;13.418;2022-07-23T13:48:21;100907.00;;;28.30
22828;BMP180;11580;52.562;13.418;2022-07-23T13:50:50;100899.00;;;28.30
22828;BMP180;11580;52.562;13.418;2022-07-23T13:53:22;100920.00;;;28.20
22828;BMP180;11580;52.562;13.418;2022-07-23T13:55:52;100909.00;;;28.10
22828;BMP180;11580;52.562;13.418;2022-07-23T13:58:21;100882.00;;;28.10
22828;BMP180;11580;52.562;13.418;2022-07-23T14:00:52;100902.00;;;28.10
22828;BMP180;11580;52.562;13.418;2022-07-23T14:03:21;100893.00;;;28.10
22828;BMP180;11580;52.562;13.418;2022-07-23T14:05:50;100901.00;;;28.20
22828;BMP180;11580;52.562;13.418;2022-07-23T14:08:17;100893.00;;;28.30
22828;BMP180;11580;52.562;13.418;2022-07-23T14:10:44;100900.00;;;28.50
22828;BMP180;11580;52.562;13.418;2022-07-23T14:13:11;100894.00;;;28.60
22828;BMP180;11580;52.562;13.418;2022-07-23T14:15:40;100901.00;;;28.70
22828;BMP180;11580;52.562;13.418;2022-07-23T14:18:07;100907.00;;;28.80
22828;BMP180;11580;52.562;13.418;2022-07-23T14:20:34;100897.00;;;28.90
22828;BMP180;11580;52.562;13.418;2022-07-23T14:23:02;100903.00;;;28.90
22828;BMP180;11580;52.562;13.418;2022-07-23T14:25:29;100903.00;;;28.90
22828;BMP180;11580;52.562;13.418;2022-07-23T14:27:56;100897.00;;;28.90
22828;BMP180;11580;52.562;13.418;2022-07-23T14:30:24;100893.00;;;28.90
22828;BMP180;11580;52.562;13.418;2022-07-23T14:32:52;100896.00;;;28.90
22828;BMP180;11580;52.562;13.418;2022-07-23T14:35:19;100902.00;;;28.90
22828;BMP180;11580;52.562;13.418;2022-07-23T14:37:47;100898.00;;;28.90
22828;BMP180;11580;52.562;13.418;2022-07-23T14:40:14;100893.00;;;28.90
22828;BMP180;11580;52.562;13.418;2022-07-23T14:42:41;100897.00;;;28.90
22828;BMP180;11580;52.562;13.418;2022-07-23T14:45:09;100897.00;;;29.00
22828;BMP180;11580;52.562;13.418;2022-07-23T14:47:37;100888.00;;;29.00
22828;BMP180;11580;52.562;13.418;2022-07-23T14:50:07;100893.00;;;29.10
22828;BMP180;11580;52.562;13.418;2022-07-23T14:52:34;100891.00;;;29.10
22828;BMP180;11580;52.562;13.418;2022-07-23T14:55:02;100890.00;;;29.10
22828;BMP180;11580;52.562;13.418;2022-07-23T14:57:30;100895.00;;;29.10
22828;BMP180;11580;52.562;13.418;2022-07-23T14:59:57;100899.00;;;29.00
22828;BMP180;11580;52.562;13.418;2022-07-23T15:02:24;100904.00;;;28.90
22828;BMP180;11580;52.562;13.418;2022-07-23T15:04:52;100898.00;;;28.80
22828;BMP180;11580;52.562;13.418;2022-07-23T15:07:20;100897.00;;;28.70